Terminal Aerodrome Forecast
Issued by NWS

Home | Current Version | Previous Version | Text Only | Print | Product List | Glossary Off
Versions: 1 2 3 4 5 6 7 8 9 10 11 12 13 14 15 16 17 18 19 20

186
FTUS43 KABR 201703 AAA
TAFMBG
TAF AMD
KMBG 201703Z 2017/2112 30007KT P6SM BKN015
     FM202000 33009KT P6SM BKN030
     FM210100 VRB04KT P6SM SKC=

USA.gov is the U.S. government's official web portal to all federal, state and local government web resources and services.